Finlandia — OJPP — position and weather

sailwx.info

Track history (hours):
 
Tides and Currents Weather Stations Pressure Air Temp Water Temp Dewpoint Dewpoint Depression Visibility Wind Speed Wind Dir Waves Ship Positions

Finlandia

Last reported at 2015-Apr-25 17:06 UTC. Time now 2015-Apr-26 02:57 UTC.
Position N 59°49' E 024°50'.

Length 175 m; draft 7 m.

Type: Passenger vessel. MMSI: 230628000.

Date/timePositionNaut miles runAvg speedWind from/ knotsBaromVisibWave heightAir tempDewpointWater temp
2015-Apr-25 17:06N 59°49' E 024°50'1424.8
2015-Apr-25 16:34N 59°36' E 024°41'9 9.5
2015-Apr-25 15:34N 59°27' E 024°46'8 8.2
2015-Apr-25 14:34N 59°35' E 024°41'16 3.7
2015-Apr-25 10:14N 59°50' E 024°48'1421.1
2015-Apr-25 09:34N 59°36' E 024°42'10 9.5
2015-Apr-25 08:34N 59°27' E 024°46'3 3.1
2015-Apr-25 07:33N 59°30' E 024°45'1918.8
2015-Apr-25 06:33N 59°49' E 024°46'15 1.1
2015-Apr-24 16:33N 59°34' E 024°43'7 7.0
2015-Apr-24 15:33N 59°27' E 024°46'7 7.5
2015-Apr-24 14:34N 59°34' E 024°42'15 3.3
2015-Apr-24 10:04N 59°48' E 024°47'1020.2
2015-Apr-24 09:33N 59°38' E 024°41'1211.9
2015-Apr-24 08:33N 59°27' E 024°46'3 2.9
2015-Apr-24 07:34N 59°30' E 024°45'2018.5
2015-Apr-24 06:28N 59°50' E 024°47'3 0.2
2015-Apr-23 17:22N 59°48' E 024°43'2025.1
2015-Apr-23 16:34N 59°28' E 024°47'2 1.5
2015-Apr-23 15:33N 59°27' E 024°46'9 8.7
2015-Apr-23 14:33N 59°35' E 024°41'13 2.8
2015-Apr-23 10:03N 59°48' E 024°39'1121.8
2015-Apr-23 09:32N 59°36' E 024°41'1010.1
2015-Apr-23 08:33N 59°27' E 024°46'2 1.9
2015-Apr-23 07:33N 59°29' E 024°46'2020.0
2015-Apr-23 06:33N 59°49' E 024°47'2 0.2
2015-Apr-22 17:20N 59°47' E 024°50'1924.7
2015-Apr-22 16:33N 59°28' E 024°46'2 1.6
2015-Apr-22 15:33N 59°27' E 024°46'8 8.4
2015-Apr-22 14:33N 59°35' E 024°41'1919.3
2015-Apr-22 13:33N 59°54' E 024°51'4 1.1
2015-Apr-22 10:19N 59°50' E 024°48'1721.9
2015-Apr-22 09:34N 59°34' E 024°43'7 7.2
2015-Apr-22 08:33N 59°27' E 024°46'3 3.4
2015-Apr-22 07:33N 59°30' E 024°45'2020.1
2015-Apr-22 06:33N 59°50' E 024°48'1 0.1
2015-Apr-21 17:23N 59°49' E 024°50'2024.9
2015-Apr-21 16:34N 59°29' E 024°46'2 2.4
2015-Apr-21 15:33N 59°27' E 024°46'7 7.5
2015-Apr-21 14:34N 59°34' E 024°42'1919.4
2015-Apr-21 13:33N 59°53' E 024°50'16 6.7
2015-Apr-21 11:13N 60°08' E 024°54'1920.7
2015-Apr-21 10:19N 59°50' E 024°47'1722.5
2015-Apr-21 09:34N 59°33' E 024°43'6 6.3
2015-Apr-21 08:33N 59°27' E 024°46'4 3.5
2015-Apr-21 07:34N 59°30' E 024°44'1919.3
2015-Apr-21 06:33N 59°50' E 024°47'1 0.0
2015-Apr-20 17:21N 59°49' E 024°46'2025.0
2015-Apr-20 16:34N 59°29' E 024°46'3 2.6
2015-Apr-20 15:34N 59°27' E 024°46'8 7.8
2015-Apr-20 14:34N 59°34' E 024°41'16 3.8
2015-Apr-20 10:19N 59°50' E 024°47'1824.2
2015-Apr-20 09:34N 59°32' E 024°44'5 4.8
2015-Apr-20 08:33N 59°27' E 024°46'3 3.0
2015-Apr-20 07:33N 59°30' E 024°45'2424.5
2015-Apr-20 06:33N 59°54' E 024°50'15 1.1
2015-Apr-19 16:33N 59°39' E 024°44'1212.2
2015-Apr-19 15:33N 59°27' E 024°46'0 0.4
2015-Apr-19 14:34N 59°27' E 024°47'2222.2
2015-Apr-19 13:33N 59°49' E 024°48'1 0.2
2015-Apr-19 10:16N 59°49' E 024°47'1521.3
2015-Apr-19 09:33N 59°34' E 024°42'8 7.8
2015-Apr-19 08:33N 59°27' E 024°46'3 3.4
2015-Apr-19 07:33N 59°30' E 024°45'1918.6
2015-Apr-19 06:32N 59°49' E 024°46'14 1.0
2015-Apr-18 16:34N 59°36' E 024°41'9 8.5
2015-Apr-18 15:28N 59°27' E 024°46'8 8.8
2015-Apr-18 14:33N 59°34' E 024°41'2018.4
2015-Apr-18 13:29N 59°54' E 024°50'4 1.2
2015-Apr-18 10:12N 59°50' E 024°47'1320.0
2015-Apr-18 09:33N 59°37' E 024°41'1110.8
2015-Apr-18 08:33N 59°27' E 024°46'3 3.2
2015-Apr-18 07:33N 59°30' E 024°45'1919.3
2015-Apr-18 06:33N 59°49' E 024°50'2 0.2
2015-Apr-17 17:06N 59°47' E 024°49'1324.1
2015-Apr-17 16:34N 59°35' E 024°42'8 8.1
2015-Apr-17 15:33N 59°27' E 024°46'7 6.9
2015-Apr-17 14:33N 59°33' E 024°42'1918.6
2015-Apr-17 13:33N 59°52' E 024°48'17 7.0
2015-Apr-17 11:10N 60°08' E 024°54'1921.1
2015-Apr-17 10:17N 59°50' E 024°47'1622.1
2015-Apr-17 09:34N 59°34' E 024°43'8 6.3
2015-Apr-17 08:21N 59°27' E 024°46'3 4.1
2015-Apr-17 07:34N 59°30' E 024°45'3919.1
2015-Apr-17 05:32N 60°08' E 024°54'20 1.7
2015-Apr-16 17:28N 59°49' E 024°47'2224.0
2015-Apr-16 16:34N 59°27' E 024°47'1 0.6
2015-Apr-16 15:33N 59°27' E 024°46'9 9.3
2015-Apr-16 14:33N 59°36' E 024°40'12 2.7
2015-Apr-16 10:09N 59°47' E 024°44'1321.5
2015-Apr-16 09:34N 59°35' E 024°42'8 8.0
2015-Apr-16 08:31N 59°27' E 024°46'3 3.6
2015-Apr-16 07:33N 59°30' E 024°45'18 1.3
2015-Apr-15 17:21N 59°48' E 024°49'  
Track history (hours):
 
Tides and Currents Weather Stations Pressure Air Temp Water Temp Dewpoint Dewpoint Depression Visibility Wind Speed Wind Dir Waves Ship Positions

Finlandia

Last reported at 2015-Apr-25 17:06 UTC. Time now 2015-Apr-26 02:57 UTC.
Position N 59°49' E 024°50'.

Length 175 m; draft 7 m.

Type: Passenger vessel. MMSI: 230628000.

Date/timePositionNaut miles runAvg speedWind from/ knotsBaromVisibWave heightAir tempDewpointWater temp
2015-Apr-25 17:06N 59°49' E 024°50'1424.8
2015-Apr-25 16:34N 59°36' E 024°41'9 9.5
2015-Apr-25 15:34N 59°27' E 024°46'8 8.2
2015-Apr-25 14:34N 59°35' E 024°41'16 3.7
2015-Apr-25 10:14N 59°50' E 024°48'1421.1
2015-Apr-25 09:34N 59°36' E 024°42'10 9.5
2015-Apr-25 08:34N 59°27' E 024°46'3 3.1
2015-Apr-25 07:33N 59°30' E 024°45'1918.8
2015-Apr-25 06:33N 59°49' E 024°46'15 1.1
2015-Apr-24 16:33N 59°34' E 024°43'7 7.0
2015-Apr-24 15:33N 59°27' E 024°46'7 7.5
2015-Apr-24 14:34N 59°34' E 024°42'15 3.3
2015-Apr-24 10:04N 59°48' E 024°47'1020.2
2015-Apr-24 09:33N 59°38' E 024°41'1211.9
2015-Apr-24 08:33N 59°27' E 024°46'3 2.9
2015-Apr-24 07:34N 59°30' E 024°45'2018.5
2015-Apr-24 06:28N 59°50' E 024°47'3 0.2
2015-Apr-23 17:22N 59°48' E 024°43'2025.1
2015-Apr-23 16:34N 59°28' E 024°47'2 1.5
2015-Apr-23 15:33N 59°27' E 024°46'9 8.7
2015-Apr-23 14:33N 59°35' E 024°41'13 2.8
2015-Apr-23 10:03N 59°48' E 024°39'1121.8
2015-Apr-23 09:32N 59°36' E 024°41'1010.1
2015-Apr-23 08:33N 59°27' E 024°46'2 1.9
2015-Apr-23 07:33N 59°29' E 024°46'2020.0
2015-Apr-23 06:33N 59°49' E 024°47'2 0.2
2015-Apr-22 17:20N 59°47' E 024°50'1924.7
2015-Apr-22 16:33N 59°28' E 024°46'2 1.6
2015-Apr-22 15:33N 59°27' E 024°46'8 8.4
2015-Apr-22 14:33N 59°35' E 024°41'1919.3
2015-Apr-22 13:33N 59°54' E 024°51'4 1.1
2015-Apr-22 10:19N 59°50' E 024°48'1721.9
2015-Apr-22 09:34N 59°34' E 024°43'7 7.2
2015-Apr-22 08:33N 59°27' E 024°46'3 3.4
2015-Apr-22 07:33N 59°30' E 024°45'2020.1
2015-Apr-22 06:33N 59°50' E 024°48'1 0.1
2015-Apr-21 17:23N 59°49' E 024°50'2024.9
2015-Apr-21 16:34N 59°29' E 024°46'2 2.4
2015-Apr-21 15:33N 59°27' E 024°46'7 7.5
2015-Apr-21 14:34N 59°34' E 024°42'1919.4
2015-Apr-21 13:33N 59°53' E 024°50'16 6.7
2015-Apr-21 11:13N 60°08' E 024°54'1920.7
2015-Apr-21 10:19N 59°50' E 024°47'1722.5
2015-Apr-21 09:34N 59°33' E 024°43'6 6.3
2015-Apr-21 08:33N 59°27' E 024°46'4 3.5
2015-Apr-21 07:34N 59°30' E 024°44'1919.3
2015-Apr-21 06:33N 59°50' E 024°47'1 0.0
2015-Apr-20 17:21N 59°49' E 024°46'2025.0
2015-Apr-20 16:34N 59°29' E 024°46'3 2.6
2015-Apr-20 15:34N 59°27' E 024°46'8 7.8
2015-Apr-20 14:34N 59°34' E 024°41'16 3.8
2015-Apr-20 10:19N 59°50' E 024°47'1824.2
2015-Apr-20 09:34N 59°32' E 024°44'5 4.8
2015-Apr-20 08:33N 59°27' E 024°46'3 3.0
2015-Apr-20 07:33N 59°30' E 024°45'2424.5
2015-Apr-20 06:33N 59°54' E 024°50'15 1.1
2015-Apr-19 16:33N 59°39' E 024°44'1212.2
2015-Apr-19 15:33N 59°27' E 024°46'0 0.4
2015-Apr-19 14:34N 59°27' E 024°47'2222.2
2015-Apr-19 13:33N 59°49' E 024°48'1 0.2
2015-Apr-19 10:16N 59°49' E 024°47'1521.3
2015-Apr-19 09:33N 59°34' E 024°42'8 7.8
2015-Apr-19 08:33N 59°27' E 024°46'3 3.4
2015-Apr-19 07:33N 59°30' E 024°45'1918.6
2015-Apr-19 06:32N 59°49' E 024°46'14 1.0
2015-Apr-18 16:34N 59°36' E 024°41'9 8.5
2015-Apr-18 15:28N 59°27' E 024°46'8 8.8
2015-Apr-18 14:33N 59°34' E 024°41'2018.4
2015-Apr-18 13:29N 59°54' E 024°50'4 1.2
2015-Apr-18 10:12N 59°50' E 024°47'1320.0
2015-Apr-18 09:33N 59°37' E 024°41'1110.8
2015-Apr-18 08:33N 59°27' E 024°46'3 3.2
2015-Apr-18 07:33N 59°30' E 024°45'1919.3
2015-Apr-18 06:33N 59°49' E 024°50'2 0.2
2015-Apr-17 17:06N 59°47' E 024°49'1324.1
2015-Apr-17 16:34N 59°35' E 024°42'8 8.1
2015-Apr-17 15:33N 59°27' E 024°46'7 6.9
2015-Apr-17 14:33N 59°33' E 024°42'1918.6
2015-Apr-17 13:33N 59°52' E 024°48'17 7.0
2015-Apr-17 11:10N 60°08' E 024°54'1921.1
2015-Apr-17 10:17N 59°50' E 024°47'1622.1
2015-Apr-17 09:34N 59°34' E 024°43'8 6.3
2015-Apr-17 08:21N 59°27' E 024°46'3 4.1
2015-Apr-17 07:34N 59°30' E 024°45'3919.1
2015-Apr-17 05:32N 60°08' E 024°54'20 1.7
2015-Apr-16 17:28N 59°49' E 024°47'2224.0
2015-Apr-16 16:34N 59°27' E 024°47'1 0.6
2015-Apr-16 15:33N 59°27' E 024°46'9 9.3
2015-Apr-16 14:33N 59°36' E 024°40'12 2.7
2015-Apr-16 10:09N 59°47' E 024°44'1321.5
2015-Apr-16 09:34N 59°35' E 024°42'8 8.0
2015-Apr-16 08:31N 59°27' E 024°46'3 3.6
2015-Apr-16 07:33N 59°30' E 024°45'18 1.3
2015-Apr-15 17:21N 59°48' E 024°49'  

Dump ship's entire track history